Time;durP1;ratioP1;P1;durP2;ratioP2;P2;SDS_P1;SDS_P2;PMS_P1;PMS_P2;Temp;Humidity;BMP_temperature;BMP_pressure;BME280_temperature;BME280_humidity;BME280_pressure;Samples;Min_cycle;Max_cycle;Signal;HPM_P1;HPM_P2
2022/01/07 00:02:07;;;;;;;18.45;5.70;;;;;;;;;;5074244;28;20044;-70
2022/01/07 00:04:36;;;;;;;16.30;6.13;;;;;;;;;;5073739;28;20128;-70
2022/01/07 00:07:03;;;;;;;21.00;6.20;;;;;;;;;;5073124;28;20044;-70
2022/01/07 00:09:29;;;;;;;18.27;6.00;;;;;;;;;;5106740;28;20051;-70
2022/01/07 00:11:55;;;;;;;18.75;6.03;;;;;;;;;;5105953;28;20044;-70
2022/01/07 00:14:21;;;;;;;20.98;6.10;;;;;;;;;;5089691;28;20041;-70
2022/01/07 00:16:48;;;;;;;14.73;5.60;;;;;;;;;;5106420;28;20596;-70
2022/01/07 00:19:15;;;;;;;17.42;5.82;;;;;;;;;;5105736;28;20039;-70
2022/01/07 00:21:41;;;;;;;10.65;5.30;;;;;;;;;;5074062;28;20045;-70
2022/01/07 00:24:08;;;;;;;17.98;5.95;;;;;;;;;;5074005;28;20047;-70
2022/01/07 00:26:34;;;;;;;20.13;5.53;;;;;;;;;;5061510;28;20057;-70
2022/01/07 00:29:00;;;;;;;17.77;6.03;;;;;;;;;;5052263;28;20049;-70
2022/01/07 00:31:26;;;;;;;13.73;5.32;;;;;;;;;;5052352;28;20049;-70
2022/01/07 00:33:52;;;;;;;14.20;4.75;;;;;;;;;;5052794;28;20056;-70
2022/01/07 00:36:18;;;;;;;15.90;5.68;;;;;;;;;;5053692;28;20045;-70
2022/01/07 00:38:44;;;;;;;17.90;5.25;;;;;;;;;;5052364;28;20491;-70
2022/01/07 00:41:10;;;;;;;18.65;5.50;;;;;;;;;;5052807;28;20049;-70
2022/01/07 00:43:36;;;;;;;16.80;5.55;;;;;;;;;;5052348;28;20049;-70
2022/01/07 00:46:02;;;;;;;13.65;5.72;;;;;;;;;;5053677;28;20040;-70
2022/01/07 00:48:28;;;;;;;13.93;5.53;;;;;;;;;;5051269;28;20394;-70
2022/01/07 00:50:54;;;;;;;17.23;4.60;;;;;;;;;;5053139;28;20047;-70
2022/01/07 00:53:20;;;;;;;11.50;4.50;;;;;;;;;;5053323;28;20083;-70
2022/01/07 00:55:48;;;;;;;13.13;5.22;;;;;;;;;;5052671;28;20053;-70
2022/01/07 00:58:14;;;;;;;13.00;5.40;;;;;;;;;;5051737;28;20120;-70
2022/01/07 01:00:40;;;;;;;16.85;5.20;;;;;;;;;;5051823;28;20053;-70
2022/01/07 01:03:06;;;;;;;16.55;5.25;;;;;;;;;;5052537;28;20072;-70
2022/01/07 01:05:32;;;;;;;12.75;4.82;;;;;;;;;;5051994;28;20053;-70
2022/01/07 01:07:59;;;;;;;12.38;5.30;;;;;;;;;;5052993;28;20119;-70
2022/01/07 01:10:25;;;;;;;14.60;5.22;;;;;;;;;;5052524;28;20040;-70
2022/01/07 01:12:52;;;;;;;17.42;5.30;;;;;;;;;;5051518;28;20055;-70
2022/01/07 01:15:23;;;;;;;15.32;5.97;;;;;;;;;;5085069;28;20036;-70
2022/01/07 01:17:50;;;;;;;12.30;5.22;;;;;;;;;;5067374;28;20061;-70
2022/01/07 01:20:16;;;;;;;20.02;5.57;;;;;;;;;;5051526;28;20041;-70
2022/01/07 01:22:42;;;;;;;14.45;5.90;;;;;;;;;;5051292;28;20126;-70
2022/01/07 01:25:09;;;;;;;20.90;6.05;;;;;;;;;;5051863;28;20198;-70
2022/01/07 01:27:35;;;;;;;13.15;5.80;;;;;;;;;;5071334;28;20372;-70
2022/01/07 01:30:02;;;;;;;12.18;5.35;;;;;;;;;;5105068;28;20040;-70
2022/01/07 01:32:29;;;;;;;18.27;6.43;;;;;;;;;;5104287;28;20048;-70
2022/01/07 01:34:54;;;;;;;17.65;5.63;;;;;;;;;;5104735;28;20036;-70
2022/01/07 01:37:21;;;;;;;17.50;6.30;;;;;;;;;;5072371;28;20582;-70
2022/01/07 01:39:47;;;;;;;14.43;5.57;;;;;;;;;;5071821;28;20135;-70
2022/01/07 01:42:13;;;;;;;15.35;6.38;;;;;;;;;;5072163;28;20048;-70
2022/01/07 01:44:39;;;;;;;24.65;6.38;;;;;;;;;;5104607;28;20094;-70
2022/01/07 01:47:05;;;;;;;17.00;6.30;;;;;;;;;;5104544;28;20041;-70
2022/01/07 01:49:31;;;;;;;17.70;6.03;;;;;;;;;;5072276;28;20052;-70
2022/01/07 01:51:57;;;;;;;16.38;5.63;;;;;;;;;;5104668;28;20402;-70
2022/01/07 01:54:23;;;;;;;16.95;6.22;;;;;;;;;;5071393;28;20502;-70
2022/01/07 01:56:49;;;;;;;15.32;7.03;;;;;;;;;;5071844;28;20055;-70
2022/01/07 01:59:23;;;;;;;20.50;7.13;;;;;;;;;;5072111;28;20371;-70
2022/01/07 02:01:49;;;;;;;22.40;6.90;;;;;;;;;;5071447;28;20068;-70
2022/01/07 02:04:15;;;;;;;19.08;6.90;;;;;;;;;;5071732;28;20040;-70
2022/01/07 02:06:41;;;;;;;15.63;6.53;;;;;;;;;;5072048;28;20044;-70
2022/01/07 02:09:07;;;;;;;17.42;7.00;;;;;;;;;;5086732;28;20048;-70
2022/01/07 02:11:34;;;;;;;18.95;6.75;;;;;;;;;;5072027;28;20522;-70
2022/01/07 02:14:00;;;;;;;14.15;7.05;;;;;;;;;;5071782;28;20033;-70
2022/01/07 02:16:26;;;;;;;15.27;6.55;;;;;;;;;;5071173;28;20041;-70
2022/01/07 02:18:53;;;;;;;13.88;7.38;;;;;;;;;;5104254;28;20056;-70
2022/01/07 02:21:19;;;;;;;17.98;7.68;;;;;;;;;;5071800;28;20036;-70
2022/01/07 02:23:45;;;;;;;21.45;7.50;;;;;;;;;;5069601;28;20036;-70
2022/01/07 02:26:12;;;;;;;17.83;7.70;;;;;;;;;;5062985;28;20135;-69
2022/01/07 02:28:39;;;;;;;19.60;7.60;;;;;;;;;;5051341;28;20477;-69
2022/01/07 02:31:05;;;;;;;20.88;7.88;;;;;;;;;;5050315;28;20629;-69
2022/01/07 02:33:31;;;;;;;15.00;8.57;;;;;;;;;;5051539;28;20071;-69
2022/01/07 02:35:57;;;;;;;18.25;8.43;;;;;;;;;;5051630;28;20045;-69
2022/01/07 02:38:23;;;;;;;18.63;8.85;;;;;;;;;;5051160;28;20050;-70
2022/01/07 02:40:50;;;;;;;18.45;8.20;;;;;;;;;;5051277;28;20041;-70
2022/01/07 02:43:16;;;;;;;19.40;8.20;;;;;;;;;;5051585;28;20115;-70
2022/01/07 02:45:42;;;;;;;17.98;8.00;;;;;;;;;;5049429;28;20140;-70
2022/01/07 02:48:08;;;;;;;13.90;8.05;;;;;;;;;;5051416;28;20063;-70
2022/01/07 02:50:35;;;;;;;18.83;8.10;;;;;;;;;;5051311;28;20044;-70
2022/01/07 02:53:02;;;;;;;16.40;7.85;;;;;;;;;;5049275;28;20119;-69
2022/01/07 02:55:28;;;;;;;17.13;8.32;;;;;;;;;;5051508;28;20625;-69
2022/01/07 02:57:54;;;;;;;16.30;8.88;;;;;;;;;;5051575;28;20041;-70
2022/01/07 03:00:21;;;;;;;12.10;7.72;;;;;;;;;;5050719;28;20044;-70
2022/01/07 03:02:48;;;;;;;16.27;8.80;;;;;;;;;;5051367;28;20506;-70
2022/01/07 03:05:15;;;;;;;19.33;9.23;;;;;;;;;;5051478;28;20106;-70
2022/01/07 03:07:41;;;;;;;16.02;8.30;;;;;;;;;;5049272;28;20044;-70
2022/01/07 03:10:09;;;;;;;18.10;9.30;;;;;;;;;;5051348;28;20048;-70
2022/01/07 03:12:36;;;;;;;16.67;8.60;;;;;;;;;;5051164;28;20511;-70
2022/01/07 03:15:04;;;;;;;19.60;8.68;;;;;;;;;;5050602;28;20040;-69
2022/01/07 03:17:30;;;;;;;15.68;9.43;;;;;;;;;;5049762;28;20486;-70
2022/01/07 03:19:56;;;;;;;16.83;9.45;;;;;;;;;;5050893;28;20078;-70
2022/01/07 03:22:22;;;;;;;16.70;9.45;;;;;;;;;;5050873;28;20522;-70
2022/01/07 03:24:48;;;;;;;16.40;9.18;;;;;;;;;;5065746;28;20073;-70
2022/01/07 03:27:14;;;;;;;17.77;9.07;;;;;;;;;;5066690;28;20103;-70
2022/01/07 03:29:40;;;;;;;15.02;8.68;;;;;;;;;;5071124;28;20450;-69
2022/01/07 03:32:06;;;;;;;18.33;9.75;;;;;;;;;;5070201;28;20060;-70
2022/01/07 03:34:33;;;;;;;17.55;9.38;;;;;;;;;;5070742;28;20625;-70
2022/01/07 03:36:59;;;;;;;18.33;9.45;;;;;;;;;;5103366;28;20479;-70
2022/01/07 03:39:25;;;;;;;14.35;8.85;;;;;;;;;;5070106;28;20036;-70
2022/01/07 03:41:51;;;;;;;14.25;9.23;;;;;;;;;;5072478;28;20656;-70
2022/01/07 03:44:17;;;;;;;21.05;9.25;;;;;;;;;;5107050;28;20079;-70
2022/01/07 03:46:43;;;;;;;18.85;8.85;;;;;;;;;;5073834;28;20036;-69
2022/01/07 03:49:09;;;;;;;15.85;9.18;;;;;;;;;;5074401;28;20054;-70
2022/01/07 03:51:35;;;;;;;15.82;9.13;;;;;;;;;;5074735;28;20044;-69
2022/01/07 03:54:01;;;;;;;18.90;9.45;;;;;;;;;;5073532;28;20044;-70
2022/01/07 03:56:27;;;;;;;18.75;8.93;;;;;;;;;;5106903;28;20102;-70
2022/01/07 03:58:53;;;;;;;16.95;8.80;;;;;;;;;;5074453;28;20128;-69
2022/01/07 04:01:19;;;;;;;12.73;7.65;;;;;;;;;;5073880;28;20427;-70
2022/01/07 04:03:45;;;;;;;17.63;8.70;;;;;;;;;;5074492;28;20074;-70
2022/01/07 04:06:15;;;;;;;16.27;9.13;;;;;;;;;;5074448;28;20043;-70
2022/01/07 04:08:41;;;;;;;13.15;8.30;;;;;;;;;;5106098;28;20048;-69
2022/01/07 04:11:07;;;;;;;16.55;9.45;;;;;;;;;;5074346;28;20052;-69
2022/01/07 04:13:33;;;;;;;19.15;8.80;;;;;;;;;;5073857;28;20036;-69
2022/01/07 04:15:59;;;;;;;18.60;8.90;;;;;;;;;;5073479;28;20045;-69
2022/01/07 04:18:25;;;;;;;12.35;8.02;;;;;;;;;;5073993;28;20041;-69
2022/01/07 04:20:51;;;;;;;15.23;9.25;;;;;;;;;;5106385;28;20043;-69
2022/01/07 04:23:17;;;;;;;16.70;7.80;;;;;;;;;;5072866;28;20048;-69
2022/01/07 04:25:43;;;;;;;16.15;8.18;;;;;;;;;;5073737;28;20055;-69
2022/01/07 04:28:09;;;;;;;17.77;8.38;;;;;;;;;;5074021;28;20044;-69
2022/01/07 04:30:40;;;;;;;17.48;8.60;;;;;;;;;;5071780;28;20063;-69
2022/01/07 04:33:06;;;;;;;16.10;8.05;;;;;;;;;;5072659;28;20059;-69
2022/01/07 04:35:33;;;;;;;15.55;8.35;;;;;;;;;;5072357;28;20056;-69
2022/01/07 04:37:59;;;;;;;14.23;8.38;;;;;;;;;;5071753;28;20044;-69
2022/01/07 04:40:27;;;;;;;17.77;8.85;;;;;;;;;;5073763;28;20032;-70
2022/01/07 04:42:53;;;;;;;18.50;9.35;;;;;;;;;;5073708;28;20052;-70
2022/01/07 04:45:19;;;;;;;14.43;7.88;;;;;;;;;;5071469;28;20044;-70
2022/01/07 04:47:46;;;;;;;16.25;8.85;;;;;;;;;;5073704;28;20653;-70
2022/01/07 04:50:16;;;;;;;12.48;7.78;;;;;;;;;;5072030;28;20047;-70
2022/01/07 04:52:44;;;;;;;12.13;7.63;;;;;;;;;;5072363;28;20123;-69
2022/01/07 04:55:11;;;;;;;12.23;7.53;;;;;;;;;;5073272;28;20044;-69
2022/01/07 04:57:37;;;;;;;12.82;8.25;;;;;;;;;;5071832;28;20436;-70
2022/01/07 05:00:05;;;;;;;10.65;7.78;;;;;;;;;;5071389;28;20640;-70
2022/01/07 05:02:31;;;;;;;12.63;7.03;;;;;;;;;;5073169;28;20072;-70
2022/01/07 05:04:57;;;;;;;11.27;7.30;;;;;;;;;;5073168;28;20044;-70
2022/01/07 05:07:23;;;;;;;11.90;7.50;;;;;;;;;;5072611;28;20047;-70
2022/01/07 05:09:49;;;;;;;11.35;7.38;;;;;;;;;;5073091;28;20094;-70
2022/01/07 05:12:15;;;;;;;12.80;8.10;;;;;;;;;;5071777;28;20044;-70
2022/01/07 05:14:41;;;;;;;12.90;7.72;;;;;;;;;;5070789;28;20113;-70
2022/01/07 05:17:07;;;;;;;13.45;8.02;;;;;;;;;;5072700;28;20562;-70
2022/01/07 05:19:33;;;;;;;12.65;7.40;;;;;;;;;;5072916;28;20046;-70
2022/01/07 05:21:59;;;;;;;10.88;7.15;;;;;;;;;;5071901;28;20036;-70
2022/01/07 05:24:25;;;;;;;13.85;7.50;;;;;;;;;;5071653;28;20383;-70
2022/01/07 05:26:51;;;;;;;13.38;8.30;;;;;;;;;;5071247;28;20475;-69
2022/01/07 05:29:17;;;;;;;13.55;6.65;;;;;;;;;;5104174;28;20083;-70
2022/01/07 05:31:44;;;;;;;12.93;7.07;;;;;;;;;;5072711;28;20040;-69
2022/01/07 05:34:10;;;;;;;12.48;7.57;;;;;;;;;;5072439;28;20036;-70
2022/01/07 05:36:37;;;;;;;11.65;6.80;;;;;;;;;;5071860;28;20348;-70
2022/01/07 05:39:05;;;;;;;11.07;7.97;;;;;;;;;;5105011;28;20049;-70
2022/01/07 05:41:31;;;;;;;12.00;7.47;;;;;;;;;;5072305;28;20037;-70
2022/01/07 05:43:57;;;;;;;9.80;7.25;;;;;;;;;;5104132;28;20078;-70
2022/01/07 05:46:23;;;;;;;10.35;7.40;;;;;;;;;;5072062;28;20044;-70
2022/01/07 05:48:49;;;;;;;11.80;6.72;;;;;;;;;;5104869;28;20470;-70
2022/01/07 05:51:15;;;;;;;11.88;7.45;;;;;;;;;;5071556;28;20127;-70
2022/01/07 05:53:42;;;;;;;11.73;7.13;;;;;;;;;;5104940;28;20078;-70
2022/01/07 05:56:08;;;;;;;12.65;7.13;;;;;;;;;;5072156;28;20460;-70
2022/01/07 05:58:34;;;;;;;9.68;7.40;;;;;;;;;;5071656;28;20036;-70
2022/01/07 06:01:00;;;;;;;9.05;6.70;;;;;;;;;;5072139;28;20039;-70
2022/01/07 06:03:26;;;;;;;13.13;6.63;;;;;;;;;;5071863;28;20162;-70
2022/01/07 06:05:53;;;;;;;10.95;7.05;;;;;;;;;;5070596;28;20040;-70
2022/01/07 06:08:19;;;;;;;11.88;7.55;;;;;;;;;;5071944;28;20040;-70
2022/01/07 06:10:45;;;;;;;11.43;6.75;;;;;;;;;;5104440;28;20056;-70
2022/01/07 06:13:11;;;;;;;11.73;6.85;;;;;;;;;;5103407;28;20042;-70
2022/01/07 06:15:37;;;;;;;12.90;6.38;;;;;;;;;;5104133;28;20462;-70
2022/01/07 06:18:03;;;;;;;10.85;6.90;;;;;;;;;;5071902;28;20542;-70
2022/01/07 06:20:30;;;;;;;8.43;6.30;;;;;;;;;;5070947;28;20086;-70
2022/01/07 06:22:56;;;;;;;8.38;6.43;;;;;;;;;;5071673;28;20044;-70
2022/01/07 06:25:22;;;;;;;10.43;6.30;;;;;;;;;;5071157;28;20128;-70
2022/01/07 06:27:48;;;;;;;9.98;6.53;;;;;;;;;;5071067;28;20044;-70
2022/01/07 06:30:14;;;;;;;11.95;7.15;;;;;;;;;;5071697;28;20040;-70
2022/01/07 06:32:40;;;;;;;9.57;6.40;;;;;;;;;;5070018;28;20406;-70
2022/01/07 06:35:07;;;;;;;11.00;7.10;;;;;;;;;;5070781;28;20823;-70
2022/01/07 06:37:33;;;;;;;8.88;6.97;;;;;;;;;;5070148;28;20070;-70
2022/01/07 06:39:59;;;;;;;12.90;7.20;;;;;;;;;;5071451;28;20036;-70
2022/01/07 06:42:25;;;;;;;11.10;6.72;;;;;;;;;;5069501;28;20041;-70
2022/01/07 06:44:51;;;;;;;8.95;7.20;;;;;;;;;;5071222;28;20609;-70
2022/01/07 06:47:17;;;;;;;10.00;6.75;;;;;;;;;;5071454;28;20054;-70
2022/01/07 06:49:43;;;;;;;9.70;6.72;;;;;;;;;;5070516;28;20052;-70
2022/01/07 06:52:09;;;;;;;9.75;6.90;;;;;;;;;;5071245;28;20107;-70
2022/01/07 06:54:35;;;;;;;9.98;6.97;;;;;;;;;;5069960;28;20072;-70
2022/01/07 06:57:01;;;;;;;9.43;7.70;;;;;;;;;;5071071;28;20128;-70
2022/01/07 06:59:27;;;;;;;13.38;7.68;;;;;;;;;;5070803;28;20044;-70
2022/01/07 07:01:53;;;;;;;10.00;6.88;;;;;;;;;;5071413;28;20033;-70
2022/01/07 07:04:19;;;;;;;10.90;7.35;;;;;;;;;;5070254;28;20471;-68
2022/01/07 07:06:45;;;;;;;13.80;7.63;;;;;;;;;;5070404;28;20503;-69
2022/01/07 07:09:12;;;;;;;10.75;8.23;;;;;;;;;;5070926;28;20075;-69
2022/01/07 07:11:39;;;;;;;12.80;8.40;;;;;;;;;;5071614;28;20044;-69
2022/01/07 07:14:05;;;;;;;12.10;7.85;;;;;;;;;;5069635;28;20577;-68
2022/01/07 07:16:31;;;;;;;11.68;8.20;;;;;;;;;;5072328;28;20036;-70
2022/01/07 07:18:58;;;;;;;13.43;8.85;;;;;;;;;;5074211;28;20033;-70
2022/01/07 07:21:24;;;;;;;13.50;8.88;;;;;;;;;;5072960;28;20684;-70
2022/01/07 07:23:50;;;;;;;14.32;9.27;;;;;;;;;;5073905;28;20052;-71
2022/01/07 07:26:16;;;;;;;15.55;9.10;;;;;;;;;;5073043;28;20068;-70
2022/01/07 07:28:42;;;;;;;16.50;9.85;;;;;;;;;;5074018;28;20075;-70
2022/01/07 07:31:13;;;;;;;14.45;10.10;;;;;;;;;;5073828;28;20072;-71
2022/01/07 07:36:27;;;;;;;18.73;10.45;;;;;;;;;;5074237;28;20102;-72
2022/01/07 07:38:57;;;;;;;19.90;10.90;;;;;;;;;;5072957;28;20044;-71
2022/01/07 07:41:23;;;;;;;17.27;10.93;;;;;;;;;;5072376;28;20041;-70
2022/01/07 07:43:50;;;;;;;20.10;11.70;;;;;;;;;;5072958;28;20556;-71
2022/01/07 07:46:16;;;;;;;22.15;11.45;;;;;;;;;;5073934;28;20147;-70
2022/01/07 07:48:43;;;;;;;22.05;12.02;;;;;;;;;;5073019;28;20044;-71
2022/01/07 07:51:09;;;;;;;18.50;12.48;;;;;;;;;;5072077;28;20131;-71
2022/01/07 07:53:35;;;;;;;16.90;12.50;;;;;;;;;;5072375;28;20098;-72
2022/01/07 07:56:01;;;;;;;21.30;12.48;;;;;;;;;;5056466;28;20450;-71
2022/01/07 07:58:27;;;;;;;20.38;12.32;;;;;;;;;;5071881;28;20094;-71
2022/01/07 08:00:54;;;;;;;20.48;12.23;;;;;;;;;;5073014;28;20041;-70
2022/01/07 08:03:21;;;;;;;21.48;12.65;;;;;;;;;;5072543;28;20052;-70
2022/01/07 08:05:47;;;;;;;18.83;13.10;;;;;;;;;;5073221;28;20054;-70
2022/01/07 08:08:13;;;;;;;21.65;12.77;;;;;;;;;;5072647;28;20033;-70
2022/01/07 08:10:46;;;;;;;22.92;13.80;;;;;;;;;;5072526;28;20106;-69
2022/01/07 08:18:24;;;;;;;23.88;14.18;;;;;;;;;;5072006;28;20047;-71
2022/01/07 08:20:53;;;;;;;23.23;14.77;;;;;;;;;;5072478;28;20029;-71
2022/01/07 08:23:20;;;;;;;29.55;15.40;;;;;;;;;;5071855;28;20048;-69
2022/01/07 08:25:46;;;;;;;27.77;15.32;;;;;;;;;;5071866;28;20052;-69
2022/01/07 08:28:14;;;;;;;25.33;14.27;;;;;;;;;;5072360;28;20057;-69
2022/01/07 08:36:11;;;;;;;31.13;16.88;;;;;;;;;;5073431;28;20048;-68
2022/01/07 08:38:37;;;;;;;31.25;17.17;;;;;;;;;;5073431;28;20483;-70
2022/01/07 08:41:03;;;;;;;29.02;16.55;;;;;;;;;;5050757;28;20501;-70
2022/01/07 08:43:29;;;;;;;34.03;15.82;;;;;;;;;;5071080;28;20045;-69
2022/01/07 08:45:56;;;;;;;27.98;16.88;;;;;;;;;;5072803;28;20781;-68
2022/01/07 08:48:22;;;;;;;34.22;18.00;;;;;;;;;;5072036;28;20040;-67
2022/01/07 08:50:48;;;;;;;32.35;17.63;;;;;;;;;;5071738;28;20040;-67
2022/01/07 08:53:14;;;;;;;38.33;18.92;;;;;;;;;;5073116;28;20040;-69
2022/01/07 08:55:40;;;;;;;33.63;17.88;;;;;;;;;;5071812;28;20075;-68
2022/01/07 08:58:06;;;;;;;34.03;17.98;;;;;;;;;;5072592;28;20047;-69
2022/01/07 09:00:33;;;;;;;31.40;17.15;;;;;;;;;;5073029;28;20467;-69
2022/01/07 09:03:00;;;;;;;32.38;17.58;;;;;;;;;;5071779;28;20045;-70
2022/01/07 09:05:26;;;;;;;25.92;15.68;;;;;;;;;;5073110;28;20075;-71
2022/01/07 09:07:52;;;;;;;29.55;17.42;;;;;;;;;;5072283;28;20044;-70
2022/01/07 09:10:18;;;;;;;33.65;17.50;;;;;;;;;;5071658;28;20040;-70
2022/01/07 09:12:45;;;;;;;35.67;18.63;;;;;;;;;;5072646;28;20048;-70
2022/01/07 09:15:12;;;;;;;30.02;15.80;;;;;;;;;;5072338;28;20041;-71
2022/01/07 09:17:38;;;;;;;32.75;17.50;;;;;;;;;;5070779;28;20083;-69
2022/01/07 09:20:06;;;;;;;28.75;17.67;;;;;;;;;;5071768;28;20036;-71
2022/01/07 09:22:32;;;;;;;30.45;16.13;;;;;;;;;;5070679;28;20048;-70
2022/01/07 09:24:58;;;;;;;32.33;16.92;;;;;;;;;;5070698;28;20079;-70
2022/01/07 09:27:24;;;;;;;33.83;17.38;;;;;;;;;;5070321;28;20471;-70
2022/01/07 09:29:50;;;;;;;34.67;18.05;;;;;;;;;;5072192;28;20051;-69
2022/01/07 09:32:16;;;;;;;29.27;18.13;;;;;;;;;;5071716;28;20094;-67
2022/01/07 09:34:42;;;;;;;31.17;17.90;;;;;;;;;;5071157;28;20048;-69
2022/01/07 09:37:08;;;;;;;27.00;16.67;;;;;;;;;;5072212;28;20069;-70
2022/01/07 09:39:36;;;;;;;33.35;19.15;;;;;;;;;;5071476;28;20040;-69
2022/01/07 09:42:03;;;;;;;36.63;20.10;;;;;;;;;;5071305;28;20533;-70
2022/01/07 09:44:30;;;;;;;30.42;16.77;;;;;;;;;;5070875;28;20123;-68
2022/01/07 09:46:56;;;;;;;35.55;19.13;;;;;;;;;;5071563;28;20045;-69
2022/01/07 09:49:22;;;;;;;36.13;17.95;;;;;;;;;;5071184;28;20482;-69
2022/01/07 09:51:48;;;;;;;30.10;18.25;;;;;;;;;;5071527;28;20048;-70
2022/01/07 09:54:14;;;;;;;33.83;18.08;;;;;;;;;;5070336;28;20040;-70
2022/01/07 09:56:41;;;;;;;32.65;17.50;;;;;;;;;;5072161;28;20036;-70
2022/01/07 09:59:07;;;;;;;33.45;17.95;;;;;;;;;;5070046;28;20181;-69
2022/01/07 10:01:54;;;;;;;26.05;14.00;;;;;;;;;;5071608;28;20085;-69
2022/01/07 10:04:31;;;;;;;14.45;8.30;;;;;;;;;;5070474;28;20044;-68
2022/01/07 10:07:17;;;;;;;11.30;6.72;;;;;;;;;;5072295;28;20052;-70
2022/01/07 10:09:57;;;;;;;10.65;6.18;;;;;;;;;;5070803;28;20067;-70
2022/01/07 10:12:23;;;;;;;8.95;4.75;;;;;;;;;;5071248;28;20040;-71
2022/01/07 10:15:08;;;;;;;9.80;5.60;;;;;;;;;;5069637;28;20089;-68
2022/01/07 10:17:34;;;;;;;10.68;6.28;;;;;;;;;;5070405;28;20083;-68
2022/01/07 10:20:00;;;;;;;9.25;5.30;;;;;;;;;;5070467;28;20040;-69
2022/01/07 10:22:27;;;;;;;9.45;6.05;;;;;;;;;;5070178;28;20044;-70
2022/01/07 10:24:53;;;;;;;9.13;5.15;;;;;;;;;;5069013;28;20044;-69
2022/01/07 10:27:20;;;;;;;11.77;6.00;;;;;;;;;;5071173;28;20040;-70
2022/01/07 10:29:46;;;;;;;12.18;6.63;;;;;;;;;;5069803;28;20041;-70
2022/01/07 10:32:29;;;;;;;10.68;7.43;;;;;;;;;;5069399;28;20222;-69
2022/01/07 10:35:04;;;;;;;16.92;7.90;;;;;;;;;;5069727;28;20040;-68
2022/01/07 10:37:31;;;;;;;17.92;8.80;;;;;;;;;;5069664;28;20052;-69
2022/01/07 10:39:57;;;;;;;18.15;9.45;;;;;;;;;;5068438;28;20263;-68
2022/01/07 10:42:23;;;;;;;20.77;10.02;;;;;;;;;;5069933;28;20037;-69
2022/01/07 10:45:03;;;;;;;15.35;8.63;;;;;;;;;;5070618;28;20040;-68
2022/01/07 10:47:29;;;;;;;13.52;8.70;;;;;;;;;;5070084;28;20451;-68
2022/01/07 10:50:15;;;;;;;17.55;8.73;;;;;;;;;;5071030;28;20048;-68
2022/01/07 10:52:41;;;;;;;15.45;8.38;;;;;;;;;;5070338;28;20044;-68
2022/01/07 10:55:15;;;;;;;18.60;7.80;;;;;;;;;;5070193;28;20394;-70
2022/01/07 10:57:44;;;;;;;13.10;6.22;;;;;;;;;;5071180;28;20453;-68
2022/01/07 11:00:20;;;;;;;16.23;6.82;;;;;;;;;;5070573;28;20574;-68
2022/01/07 11:02:47;;;;;;;11.07;5.03;;;;;;;;;;5070289;28;20056;-68
2022/01/07 11:05:13;;;;;;;10.60;5.65;;;;;;;;;;5070478;28;20036;-68
2022/01/07 11:07:39;;;;;;;11.27;6.20;;;;;;;;;;5070547;28;20115;-69
2022/01/07 11:10:06;;;;;;;10.70;6.05;;;;;;;;;;5069948;28;20048;-68
2022/01/07 11:12:33;;;;;;;17.08;7.82;;;;;;;;;;5070637;28;20048;-68
2022/01/07 11:15:00;;;;;;;17.90;9.38;;;;;;;;;;5070926;28;20068;-68
2022/01/07 11:17:27;;;;;;;21.08;10.32;;;;;;;;;;5069717;28;20530;-69
2022/01/07 11:19:57;;;;;;;19.65;10.30;;;;;;;;;;5069956;28;20087;-69
2022/01/07 11:22:24;;;;;;;18.25;10.88;;;;;;;;;;5070719;28;20384;-69
2022/01/07 11:24:54;;;;;;;25.05;12.02;;;;;;;;;;5069222;28;20098;-69
2022/01/07 11:27:20;;;;;;;22.02;11.88;;;;;;;;;;5068910;28;20105;-68
2022/01/07 11:29:46;;;;;;;21.95;12.45;;;;;;;;;;5070276;28;20083;-70
2022/01/07 11:32:31;;;;;;;25.63;12.52;;;;;;;;;;5069452;28;20036;-70
2022/01/07 11:35:21;;;;;;;26.10;13.32;;;;;;;;;;5069122;28;20118;-70
2022/01/07 11:38:00;;;;;;;22.40;13.27;;;;;;;;;;5050034;28;20053;-69
2022/01/07 11:40:30;;;;;;;22.52;13.30;;;;;;;;;;5059264;28;20399;-69
2022/01/07 11:43:06;;;;;;;22.20;12.52;;;;;;;;;;5070583;28;20433;-68
2022/01/07 11:45:39;;;;;;;19.38;12.45;;;;;;;;;;5070249;28;20094;-69
2022/01/07 11:48:15;;;;;;;22.45;12.55;;;;;;;;;;5069604;28;20040;-68
2022/01/07 11:50:56;;;;;;;21.85;12.10;;;;;;;;;;5070737;28;20033;-69
2022/01/07 11:53:28;;;;;;;23.48;10.57;;;;;;;;;;5069369;28;20044;-69
2022/01/07 11:56:01;;;;;;;17.05;9.00;;;;;;;;;;5068864;28;20052;-69
2022/01/07 11:58:51;;;;;;;17.35;8.75;;;;;;;;;;5070436;28;20040;-69
2022/01/07 12:01:29;;;;;;;15.55;7.00;;;;;;;;;;5069141;28;20048;-69
2022/01/07 12:03:59;;;;;;;16.00;7.30;;;;;;;;;;5071456;28;20048;-69
2022/01/07 12:06:26;;;;;;;10.02;3.72;;;;;;;;;;5073804;28;20399;-69
2022/01/07 12:09:19;;;;;;;8.05;2.83;;;;;;;;;;5072414;28;20471;-69
2022/01/07 12:12:05;;;;;;;6.68;2.60;;;;;;;;;;5072011;28;20048;-69
2022/01/07 12:14:38;;;;;;;6.25;2.05;;;;;;;;;;5073197;28;20048;-69
2022/01/07 12:17:05;;;;;;;6.93;1.75;;;;;;;;;;5073034;28;20344;-69
2022/01/07 12:19:37;;;;;;;6.85;1.88;;;;;;;;;;5073346;28;20078;-70
2022/01/07 12:22:16;;;;;;;7.45;2.40;;;;;;;;;;5071920;28;20458;-69
2022/01/07 12:24:43;;;;;;;6.35;1.50;;;;;;;;;;5072532;28;20044;-69
2022/01/07 12:27:13;;;;;;;8.90;1.50;;;;;;;;;;5072065;28;20135;-69
2022/01/07 12:29:43;;;;;;;10.10;1.75;;;;;;;;;;5072832;28;20052;-69
2022/01/07 12:32:11;;;;;;;7.20;1.50;;;;;;;;;;5072476;28;20044;-70
2022/01/07 12:34:48;;;;;;;7.50;1.98;;;;;;;;;;5094473;28;20732;-70
2022/01/07 12:37:18;;;;;;;7.65;1.52;;;;;;;;;;5102605;28;20522;-68
2022/01/07 12:39:49;;;;;;;9.90;1.40;;;;;;;;;;5072523;28;20048;-67
2022/01/07 12:42:15;;;;;;;7.15;1.27;;;;;;;;;;5072689;28;20045;-67
2022/01/07 12:44:43;;;;;;;3.22;1.10;;;;;;;;;;5072323;28;20037;-68
2022/01/07 12:47:13;;;;;;;7.18;2.08;;;;;;;;;;5072382;28;20044;-68
2022/01/07 12:49:40;;;;;;;5.40;1.17;;;;;;;;;;5072532;28;20048;-69
2022/01/07 12:52:10;;;;;;;4.75;1.05;;;;;;;;;;5072660;28;20590;-68
2022/01/07 12:54:36;;;;;;;10.20;1.67;;;;;;;;;;5072450;28;20040;-68
2022/01/07 12:57:02;;;;;;;6.88;1.60;;;;;;;;;;5072581;28;20383;-69
2022/01/07 12:59:29;;;;;;;4.13;1.23;;;;;;;;;;5072844;28;20115;-69
2022/01/07 13:01:55;;;;;;;4.95;1.63;;;;;;;;;;5071801;28;20048;-69
2022/01/07 13:04:23;;;;;;;5.65;1.58;;;;;;;;;;5072410;28;20083;-68
2022/01/07 13:06:49;;;;;;;6.50;2.03;;;;;;;;;;5072515;28;20047;-68
2022/01/07 13:09:19;;;;;;;7.20;2.35;;;;;;;;;;5070452;28;20521;-68
2022/01/07 13:11:47;;;;;;;9.60;2.85;;;;;;;;;;5073030;28;20038;-69
2022/01/07 13:14:14;;;;;;;5.90;2.90;;;;;;;;;;5070491;28;20076;-70
2022/01/07 13:16:40;;;;;;;6.82;3.20;;;;;;;;;;5071736;28;20091;-67
2022/01/07 13:19:10;;;;;;;8.48;2.85;;;;;;;;;;5072485;28;20032;-68
2022/01/07 13:21:38;;;;;;;6.97;3.17;;;;;;;;;;5071316;28;20049;-69
2022/01/07 13:24:05;;;;;;;6.78;3.40;;;;;;;;;;5071531;28;20082;-70
2022/01/07 13:26:32;;;;;;;9.65;3.55;;;;;;;;;;5067577;28;20040;-68
2022/01/07 13:29:13;;;;;;;10.82;4.45;;;;;;;;;;5071188;28;20095;-69
2022/01/07 13:31:42;;;;;;;11.68;4.57;;;;;;;;;;5071611;28;20058;-70
2022/01/07 13:34:08;;;;;;;11.73;4.22;;;;;;;;;;5069898;28;20044;-70
2022/01/07 13:36:37;;;;;;;13.30;4.60;;;;;;;;;;5070143;28;20044;-68
2022/01/07 13:39:04;;;;;;;12.27;5.38;;;;;;;;;;5068781;28;20051;-67
2022/01/07 13:41:30;;;;;;;10.18;4.25;;;;;;;;;;5071489;28;20043;-67
2022/01/07 13:44:03;;;;;;;9.75;3.85;;;;;;;;;;5071187;28;20837;-67
2022/01/07 13:46:29;;;;;;;12.15;3.80;;;;;;;;;;5068047;28;20063;-67
2022/01/07 13:49:06;;;;;;;12.02;4.10;;;;;;;;;;5071093;28;20063;-69
2022/01/07 13:51:32;;;;;;;6.82;3.28;;;;;;;;;;5068265;28;20040;-68
2022/01/07 13:54:05;;;;;;;8.52;3.47;;;;;;;;;;5071571;28;20069;-68
2022/01/07 13:56:32;;;;;;;7.82;3.15;;;;;;;;;;5070280;28;20059;-69
2022/01/07 13:59:02;;;;;;;7.97;3.42;;;;;;;;;;5070610;28;20054;-69
2022/01/07 14:01:28;;;;;;;3.72;2.17;;;;;;;;;;5073570;28;20124;-67
2022/01/07 14:03:54;;;;;;;6.65;2.80;;;;;;;;;;5073506;28;20032;-68
2022/01/07 14:06:21;;;;;;;6.05;2.83;;;;;;;;;;5072020;28;20047;-68
2022/01/07 14:08:48;;;;;;;7.22;3.13;;;;;;;;;;5073444;28;20063;-67
2022/01/07 14:11:16;;;;;;;7.50;3.85;;;;;;;;;;5073775;28;20036;-69
2022/01/07 14:13:42;;;;;;;9.13;4.53;;;;;;;;;;5070406;28;20037;-69
2022/01/07 14:16:08;;;;;;;9.50;3.47;;;;;;;;;;5073416;28;20486;-69
2022/01/07 14:18:36;;;;;;;10.88;4.00;;;;;;;;;;5072021;28;20568;-68
2022/01/07 14:21:06;;;;;;;10.63;4.22;;;;;;;;;;5071192;28;20048;-69
2022/01/07 14:23:43;;;;;;;15.00;5.57;;;;;;;;;;5071264;28;20040;-69
2022/01/07 14:26:17;;;;;;;14.00;5.65;;;;;;;;;;5070075;28;20091;-69
2022/01/07 14:28:52;;;;;;;15.27;6.90;;;;;;;;;;5070025;28;20045;-69
2022/01/07 14:31:18;;;;;;;16.38;5.82;;;;;;;;;;5071116;28;20079;-68
2022/01/07 14:33:48;;;;;;;16.38;5.45;;;;;;;;;;5069341;28;20048;-70
2022/01/07 14:36:18;;;;;;;11.68;5.10;;;;;;;;;;5069223;28;20471;-70
2022/01/07 14:38:46;;;;;;;15.98;6.65;;;;;;;;;;5052443;28;20510;-69
2022/01/07 14:41:12;;;;;;;13.75;5.32;;;;;;;;;;5070934;28;20040;-69
2022/01/07 14:43:38;;;;;;;17.88;5.78;;;;;;;;;;5068416;28;20045;-69
2022/01/07 14:46:08;;;;;;;24.02;6.55;;;;;;;;;;5071085;28;20101;-69